createdAt,value
2019-02-23T00:01:44.733Z,5.40
2019-02-23T00:04:15.565Z,5.40
2019-02-23T00:06:46.552Z,5.40
2019-02-23T00:09:17.302Z,5.40
2019-02-23T00:11:47.959Z,5.40
2019-02-23T00:14:19.245Z,5.40
2019-02-23T00:16:50.048Z,5.40
2019-02-23T00:19:24.810Z,5.30
2019-02-23T00:21:53.323Z,5.30
2019-02-23T00:24:24.127Z,5.30
2019-02-23T00:26:55.807Z,5.30
2019-02-23T00:29:26.819Z,5.30
2019-02-23T00:31:58.044Z,5.30
2019-02-23T00:34:29.194Z,5.30
2019-02-23T00:37:00.040Z,5.30
2019-02-23T00:39:30.734Z,5.30
2019-02-23T00:42:01.576Z,5.20
2019-02-23T00:44:32.408Z,5.30
2019-02-23T00:47:02.989Z,5.20
2019-02-23T00:49:36.514Z,5.20
2019-02-23T00:52:06.305Z,5.10
2019-02-23T00:54:37.088Z,5.10
2019-02-23T00:57:07.676Z,5.10
2019-02-23T00:59:38.353Z,5.10
2019-02-23T01:02:08.940Z,5.10
2019-02-23T01:04:39.578Z,5.20
2019-02-23T01:07:10.280Z,5.10
2019-02-23T01:09:41.252Z,5.10
2019-02-23T01:12:12.000Z,5.10
2019-02-23T01:14:42.665Z,5.00
2019-02-23T01:17:13.532Z,5.20
2019-02-23T01:19:47.778Z,5.20
2019-02-23T01:22:16.710Z,5.30
2019-02-23T01:24:47.402Z,5.20
2019-02-23T01:27:17.990Z,5.20
2019-02-23T01:29:48.940Z,5.20
2019-02-23T01:32:19.649Z,5.10
2019-02-23T01:34:50.455Z,5.00
2019-02-23T01:37:21.327Z,4.90
2019-02-23T01:39:51.926Z,4.90
2019-02-23T01:42:22.564Z,5.00
2019-02-23T01:44:54.269Z,4.90
2019-02-23T01:47:25.117Z,4.90
2019-02-23T01:49:58.847Z,4.90
2019-02-23T01:52:27.875Z,4.80
2019-02-23T01:54:58.801Z,4.90
2019-02-23T01:57:29.472Z,4.90
2019-02-23T02:00:00.432Z,4.80
2019-02-23T02:05:21.529Z,4.80
2019-02-23T02:07:52.244Z,4.80
2019-02-23T02:10:23.429Z,4.80
2019-02-23T02:12:54.332Z,4.80
2019-02-23T02:15:25.664Z,4.90
2019-02-23T02:17:56.484Z,4.80
2019-02-23T02:20:27.160Z,4.80
2019-02-23T02:22:57.815Z,4.70
2019-02-23T02:25:28.546Z,4.70
2019-02-23T02:27:59.384Z,4.60
2019-02-23T02:30:30.300Z,4.60
2019-02-23T02:33:01.240Z,4.60
2019-02-23T02:35:31.913Z,4.60
2019-02-23T02:38:02.676Z,4.60
2019-02-23T02:40:33.634Z,4.50
2019-02-23T02:43:04.417Z,4.50
2019-02-23T02:45:35.520Z,4.60
2019-02-23T02:48:06.344Z,4.60
2019-02-23T02:50:37.229Z,4.60
2019-02-23T02:53:07.965Z,4.70
2019-02-23T02:55:38.769Z,4.70
2019-02-23T02:58:09.675Z,4.90
2019-02-23T03:00:40.574Z,4.90
2019-02-23T03:03:11.626Z,4.80
2019-02-23T03:05:42.545Z,4.90
2019-02-23T03:08:13.384Z,4.80
2019-02-23T03:10:44.012Z,4.80
2019-02-23T03:13:14.871Z,4.80
2019-02-23T03:15:45.534Z,4.80
2019-02-23T03:18:16.210Z,4.80
2019-02-23T03:20:46.937Z,4.80
2019-02-23T03:23:17.672Z,4.80
2019-02-23T03:25:48.592Z,4.80
2019-02-23T03:28:19.468Z,4.80
2019-02-23T03:30:50.246Z,4.70
2019-02-23T03:33:20.797Z,4.70
2019-02-23T03:35:51.540Z,4.70
2019-02-23T03:38:22.314Z,4.70
2019-02-23T03:40:53.003Z,4.70
2019-02-23T03:43:23.623Z,4.70
2019-02-23T03:45:54.443Z,4.60
2019-02-23T03:48:26.069Z,4.60
2019-02-23T03:50:57.069Z,4.70
2019-02-23T03:53:28.062Z,4.70
2019-02-23T03:55:58.693Z,4.70
2019-02-23T03:58:29.532Z,4.70
2019-02-23T04:01:00.623Z,4.70
2019-02-23T04:03:31.462Z,4.70
2019-02-23T04:06:02.263Z,4.70
2019-02-23T04:08:33.896Z,4.70
2019-02-23T04:11:04.969Z,4.70
2019-02-23T04:13:35.700Z,4.70
2019-02-23T04:16:06.513Z,4.80
2019-02-23T04:21:19.746Z,4.70
2019-02-23T04:23:50.504Z,4.80
2019-02-23T04:26:21.431Z,4.80
2019-02-23T04:28:52.544Z,4.70
2019-02-23T04:31:24.429Z,4.80
2019-02-23T04:33:54.921Z,4.80
2019-02-23T04:36:26.735Z,4.80
2019-02-23T04:38:57.832Z,4.80
2019-02-23T04:41:28.574Z,4.80
2019-02-23T04:43:59.397Z,4.80
2019-02-23T04:46:30.468Z,4.90
2019-02-23T04:49:01.199Z,4.80
2019-02-23T04:51:31.946Z,4.80
2019-02-23T04:54:02.953Z,4.80
2019-02-23T04:56:33.657Z,4.80
2019-02-23T04:59:04.417Z,4.80
2019-02-23T05:01:35.379Z,4.80
2019-02-23T05:04:06.372Z,4.80
2019-02-23T05:06:37.217Z,4.80
2019-02-23T05:09:07.996Z,4.70
2019-02-23T05:11:38.894Z,4.70
2019-02-23T05:14:09.552Z,4.60
2019-02-23T05:16:40.399Z,4.60
2019-02-23T05:19:11.231Z,4.60
2019-02-23T05:21:42.128Z,4.60
2019-02-23T05:24:12.980Z,4.50
2019-02-23T05:26:43.669Z,4.50
2019-02-23T05:29:14.705Z,4.40
2019-02-23T05:31:45.681Z,4.40
2019-02-23T05:34:16.566Z,4.50
2019-02-23T05:36:47.587Z,4.40
2019-02-23T05:39:18.424Z,4.40
2019-02-23T05:41:49.489Z,4.40
2019-02-23T05:44:20.518Z,4.40
2019-02-23T05:46:51.658Z,4.40
2019-02-23T05:49:22.579Z,4.50
2019-02-23T05:51:53.626Z,4.50
2019-02-23T05:54:24.353Z,4.50
2019-02-23T05:56:55.479Z,4.50
2019-02-23T05:59:26.387Z,4.50
2019-02-23T06:01:57.457Z,4.50
2019-02-23T06:04:28.373Z,4.50
2019-02-23T06:06:59.263Z,4.50
2019-02-23T06:09:30.237Z,4.80
2019-02-23T06:12:01.169Z,4.50
2019-02-23T06:14:32.111Z,4.50
2019-02-23T06:19:51.681Z,4.60
2019-02-23T06:22:22.558Z,4.70
2019-02-23T06:24:53.653Z,4.70
2019-02-23T06:27:24.436Z,4.80
2019-02-23T06:29:55.600Z,4.80
2019-02-23T06:32:26.424Z,4.90
2019-02-23T06:34:57.432Z,4.90
2019-02-23T06:37:28.442Z,4.90
2019-02-23T06:39:59.614Z,4.90
2019-02-23T06:42:30.468Z,5.00
2019-02-23T06:45:01.536Z,5.00
2019-02-23T06:47:32.349Z,5.00
2019-02-23T06:50:03.168Z,5.00
2019-02-23T06:52:35.029Z,4.90
2019-02-23T06:55:05.727Z,4.90
2019-02-23T06:57:36.476Z,5.10
2019-02-23T07:00:09.693Z,5.00
2019-02-23T07:02:40.641Z,5.10
2019-02-23T07:05:11.923Z,5.00
2019-02-23T07:07:42.758Z,5.00
2019-02-23T07:10:13.436Z,5.00
2019-02-23T07:12:44.128Z,4.90
2019-02-23T07:15:14.984Z,5.00
2019-02-23T07:17:45.675Z,5.10
2019-02-23T07:20:16.641Z,5.20
2019-02-23T07:22:47.605Z,5.20
2019-02-23T07:25:18.553Z,5.20
2019-02-23T07:27:49.440Z,5.20
2019-02-23T07:30:20.046Z,5.20
2019-02-23T07:32:50.542Z,5.10
2019-02-23T07:35:21.388Z,5.10
2019-02-23T07:37:52.081Z,5.10
2019-02-23T07:40:22.636Z,5.20
2019-02-23T07:42:53.312Z,5.20
2019-02-23T07:45:24.149Z,5.20
2019-02-23T07:47:54.750Z,5.30
2019-02-23T07:50:25.739Z,5.30
2019-02-23T07:52:56.497Z,5.40
2019-02-23T07:55:28.627Z,5.40
2019-02-23T07:57:59.388Z,5.50
2019-02-23T08:00:30.044Z,5.60
2019-02-23T08:03:00.583Z,5.60
2019-02-23T08:05:31.139Z,5.70
2019-02-23T08:08:01.672Z,5.80
2019-02-23T08:10:32.238Z,5.80
2019-02-23T08:13:02.776Z,5.90
2019-02-23T08:15:33.340Z,5.90
2019-02-23T08:18:03.937Z,6.00
2019-02-23T08:20:34.469Z,6.00
2019-02-23T08:23:05.065Z,6.00
2019-02-23T08:25:35.615Z,6.00
2019-02-23T08:28:06.204Z,6.10
2019-02-23T08:30:36.775Z,6.30
2019-02-23T08:33:07.329Z,6.40
2019-02-23T08:35:37.896Z,6.40
2019-02-23T08:38:08.496Z,6.50
2019-02-23T08:40:39.032Z,6.50
2019-02-23T08:45:58.244Z,6.50
2019-02-23T08:48:29.686Z,6.60
2019-02-23T08:51:00.173Z,6.60
2019-02-23T08:53:30.700Z,6.80
2019-02-23T08:56:01.273Z,6.90
2019-02-23T08:58:31.802Z,6.90
2019-02-23T09:01:02.388Z,7.00
2019-02-23T09:03:32.933Z,7.20
2019-02-23T09:06:03.617Z,7.30
2019-02-23T09:08:34.145Z,7.40
2019-02-23T09:11:04.706Z,7.50
2019-02-23T09:13:35.232Z,7.60
2019-02-23T09:16:05.791Z,7.60
2019-02-23T09:18:36.337Z,7.70
2019-02-23T09:21:06.989Z,7.80
2019-02-23T09:23:37.575Z,7.90
2019-02-23T09:26:08.099Z,7.90
2019-02-23T09:28:38.674Z,7.90
2019-02-23T09:31:09.250Z,8.00
2019-02-23T09:33:39.773Z,8.10
2019-02-23T09:36:10.336Z,8.20
2019-02-23T09:38:40.890Z,8.20
2019-02-23T09:41:11.496Z,8.40
2019-02-23T09:43:42.052Z,8.40
2019-02-23T09:46:12.584Z,8.50
2019-02-23T09:48:43.184Z,8.40
2019-02-23T09:51:13.692Z,8.40
2019-02-23T09:53:44.257Z,8.50
2019-02-23T09:56:14.808Z,8.60
2019-02-23T09:58:45.376Z,8.60
2019-02-23T10:01:15.840Z,8.70
2019-02-23T10:03:46.410Z,8.80
2019-02-23T10:06:16.972Z,8.90
2019-02-23T10:08:47.508Z,9.10
2019-02-23T10:11:18.075Z,9.10
2019-02-23T10:13:48.650Z,9.20
2019-02-23T10:16:19.215Z,9.10
2019-02-23T10:18:49.817Z,9.30
2019-02-23T10:21:20.384Z,9.30
2019-02-23T10:23:50.953Z,9.30
2019-02-23T10:26:21.503Z,9.30
2019-02-23T10:28:52.061Z,9.40
2019-02-23T10:31:22.643Z,9.50
2019-02-23T10:33:53.267Z,9.50
2019-02-23T10:36:23.792Z,9.60
2019-02-23T10:38:54.351Z,9.60
2019-02-23T10:41:25.829Z,9.70
2019-02-23T10:43:56.400Z,9.70
2019-02-23T10:46:26.948Z,9.80
2019-02-23T10:48:57.560Z,10.00
2019-02-23T10:51:28.140Z,10.10
2019-02-23T10:53:58.674Z,10.20
2019-02-23T10:56:29.175Z,10.20
2019-02-23T10:58:59.802Z,10.20
2019-02-23T11:01:30.365Z,10.30
2019-02-23T11:04:00.909Z,10.40
2019-02-23T11:06:31.511Z,10.50
2019-02-23T11:09:02.109Z,10.60
2019-02-23T11:11:34.263Z,10.60
2019-02-23T11:14:06.109Z,10.60
2019-02-23T11:16:36.676Z,10.70
2019-02-23T11:19:07.264Z,10.80
2019-02-23T11:21:37.856Z,10.80
2019-02-23T11:24:11.437Z,10.90
2019-02-23T11:26:42.069Z,11.10
2019-02-23T11:29:12.640Z,11.20
2019-02-23T11:31:43.272Z,11.30
2019-02-23T11:34:13.845Z,11.30
2019-02-23T11:36:44.490Z,11.30
2019-02-23T11:39:15.219Z,11.50
2019-02-23T11:41:45.817Z,11.70
2019-02-23T11:44:16.444Z,11.80
2019-02-23T11:46:59.769Z,11.80
2019-02-23T11:49:20.636Z,11.90
2019-02-23T11:51:51.284Z,12.00
2019-02-23T11:54:25.506Z,12.10
2019-02-23T11:56:58.785Z,12.20
2019-02-23T11:59:29.738Z,12.40
2019-02-23T12:02:00.328Z,12.60
2019-02-23T12:04:31.733Z,12.70
2019-02-23T12:07:02.416Z,12.80
2019-02-23T12:09:33.043Z,12.90
2019-02-23T12:12:03.679Z,13.10
2019-02-23T12:14:34.287Z,13.20
2019-02-23T12:17:04.922Z,13.30
2019-02-23T12:19:35.551Z,13.40
2019-02-23T12:24:54.993Z,13.60
2019-02-23T12:30:01.818Z,13.80
2019-02-23T12:32:32.606Z,14.00
2019-02-23T12:35:03.197Z,14.20
2019-02-23T12:37:34.522Z,14.40
2019-02-23T12:40:06.537Z,14.50
2019-02-23T12:42:37.361Z,14.70
2019-02-23T12:45:08.377Z,14.90
2019-02-23T12:47:39.539Z,15.00
2019-02-23T12:50:10.429Z,15.20
2019-02-23T12:52:41.376Z,15.30
2019-02-23T12:55:13.098Z,15.40
2019-02-23T12:57:44.053Z,15.50
2019-02-23T13:00:15.595Z,15.60
2019-02-23T13:02:46.548Z,15.70
2019-02-23T13:05:17.446Z,15.70
2019-02-23T13:07:48.185Z,15.80
2019-02-23T13:10:20.178Z,16.00
2019-02-23T13:12:58.880Z,16.20
2019-02-23T13:15:37.168Z,16.30
2019-02-23T13:18:49.205Z,16.50
2019-02-23T13:21:39.718Z,16.50
2019-02-23T13:24:55.489Z,16.50
2019-02-23T13:28:01.301Z,16.70
2019-02-23T13:31:24.797Z,16.70
2019-02-23T13:34:37.691Z,17.00
2019-02-23T13:37:50.863Z,17.60
2019-02-23T13:41:11.247Z,18.50
2019-02-23T13:44:06.420Z,19.40
2019-02-23T13:47:18.696Z,19.60
2019-02-23T13:50:25.167Z,19.60
2019-02-23T13:53:45.965Z,20.20
2019-02-23T13:56:50.295Z,20.60
2019-02-23T13:59:57.128Z,20.70
2019-02-23T14:02:53.200Z,21.10
2019-02-23T14:05:49.021Z,21.70
2019-02-23T14:08:51.140Z,21.90
2019-02-23T14:11:57.952Z,21.90
2019-02-23T14:15:26.092Z,21.70
2019-02-23T14:18:33.225Z,21.50
2019-02-23T14:21:46.088Z,21.20
2019-02-23T14:24:34.713Z,21.50
2019-02-23T14:27:35.104Z,21.70
2019-02-23T14:30:40.942Z,21.10
2019-02-23T14:33:50.031Z,20.60
2019-02-23T14:37:10.731Z,20.50
2019-02-23T14:40:33.225Z,20.20
2019-02-23T14:43:33.966Z,20.00
2019-02-23T14:46:54.614Z,19.40
2019-02-23T14:50:12.481Z,19.00
2019-02-23T14:53:20.535Z,18.30
2019-02-23T14:56:27.644Z,18.10
2019-02-23T14:59:14.032Z,17.90
2019-02-23T15:02:21.293Z,17.80
2019-02-23T15:05:16.071Z,17.60
2019-02-23T15:08:11.256Z,17.60
2019-02-23T15:11:09.394Z,17.60
2019-02-23T15:14:08.294Z,17.50
2019-02-23T15:17:10.701Z,17.50
2019-02-23T15:20:21.382Z,17.50
2019-02-23T15:23:23.450Z,17.30
2019-02-23T15:26:43.713Z,17.20
2019-02-23T15:29:51.233Z,16.90
2019-02-23T15:35:33.496Z,16.50
2019-02-23T15:38:39.967Z,16.30
2019-02-23T15:41:52.637Z,16.20
2019-02-23T15:44:50.528Z,16.10
2019-02-23T15:48:19.739Z,15.80
2019-02-23T15:50:50.361Z,15.70
2019-02-23T15:53:20.924Z,15.20
2019-02-23T15:55:51.513Z,15.10
2019-02-23T15:58:22.496Z,15.10
2019-02-23T16:00:53.575Z,15.10
2019-02-23T16:03:24.758Z,15.20
2019-02-23T16:05:55.252Z,15.20
2019-02-23T16:08:25.844Z,15.20
2019-02-23T16:10:56.312Z,15.10
2019-02-23T16:13:26.909Z,15.10
2019-02-23T16:15:57.569Z,15.00
2019-02-23T16:18:28.170Z,15.00
2019-02-23T16:20:58.762Z,14.90
2019-02-23T16:23:35.387Z,15.00
2019-02-23T16:26:01.529Z,14.80
2019-02-23T16:28:32.069Z,14.80
2019-02-23T16:31:02.656Z,14.70
2019-02-23T16:33:33.216Z,14.60
2019-02-23T16:36:03.784Z,14.60
2019-02-23T16:38:34.367Z,14.50
2019-02-23T16:43:40.827Z,14.30
2019-02-23T16:46:11.381Z,14.30
2019-02-23T16:48:41.893Z,14.20
2019-02-23T16:51:12.453Z,14.10
2019-02-23T16:53:43.049Z,14.00
2019-02-23T16:56:13.644Z,14.00
2019-02-23T16:58:44.172Z,13.90
2019-02-23T17:01:15.653Z,13.80
2019-02-23T17:03:46.224Z,13.80
2019-02-23T17:06:16.787Z,13.70
2019-02-23T17:08:47.384Z,13.80
2019-02-23T17:11:17.925Z,13.70
2019-02-23T17:13:48.465Z,13.70
2019-02-23T17:16:19.044Z,13.70
2019-02-23T17:18:49.560Z,13.80
2019-02-23T17:21:20.200Z,13.60
2019-02-23T17:23:50.765Z,13.50
2019-02-23T17:26:21.408Z,13.50
2019-02-23T17:28:52.005Z,13.30
2019-02-23T17:31:22.605Z,13.20
2019-02-23T17:33:53.113Z,13.10
2019-02-23T17:36:24.764Z,13.00
2019-02-23T17:38:55.371Z,13.10
2019-02-23T17:41:25.972Z,13.00
2019-02-23T17:46:39.102Z,12.90
2019-02-23T17:49:09.685Z,13.00
2019-02-23T17:51:40.309Z,13.00
2019-02-23T17:54:10.922Z,12.80
2019-02-23T17:56:41.492Z,12.80
2019-02-23T17:59:12.144Z,12.80
2019-02-23T18:01:43.029Z,12.70
2019-02-23T18:04:13.689Z,12.60
2019-02-23T18:06:44.305Z,12.60
2019-02-23T18:09:14.938Z,12.60
2019-02-23T18:11:45.545Z,12.60
2019-02-23T18:14:16.156Z,12.60
2019-02-23T18:16:46.789Z,12.60
2019-02-23T18:19:17.376Z,12.50
2019-02-23T18:21:47.939Z,12.30
2019-02-23T18:24:18.744Z,12.30
2019-02-23T18:26:49.364Z,12.40
2019-02-23T18:29:19.989Z,12.60
2019-02-23T18:31:50.603Z,12.50
2019-02-23T18:34:21.265Z,12.50
2019-02-23T18:36:51.936Z,12.50
2019-02-23T18:39:22.566Z,12.50
2019-02-23T18:41:53.289Z,12.30
2019-02-23T18:44:24.002Z,12.30
2019-02-23T18:46:54.550Z,12.20
2019-02-23T18:49:25.170Z,12.10
2019-02-23T18:51:55.692Z,12.10
2019-02-23T18:54:26.299Z,12.10
2019-02-23T18:56:56.911Z,12.00
2019-02-23T18:59:27.552Z,11.90
2019-02-23T19:01:58.264Z,11.90
2019-02-23T19:04:28.878Z,11.90
2019-02-23T19:09:35.637Z,11.90
2019-02-23T19:12:06.239Z,11.90
2019-02-23T19:14:36.922Z,11.90
2019-02-23T19:17:07.724Z,11.80
2019-02-23T19:22:28.066Z,11.70
2019-02-23T19:24:58.968Z,11.50
2019-02-23T19:27:29.735Z,11.50
2019-02-23T19:30:02.039Z,11.70
2019-02-23T19:32:34.470Z,11.60
2019-02-23T19:35:05.400Z,11.50
2019-02-23T19:37:36.033Z,11.40
2019-02-23T19:40:06.899Z,11.30
2019-02-23T19:42:37.912Z,11.30
2019-02-23T19:45:09.174Z,11.30
2019-02-23T19:47:40.868Z,11.50
2019-02-23T19:50:18.499Z,11.60
2019-02-23T19:52:49.409Z,11.60
2019-02-23T19:55:20.104Z,11.50
2019-02-23T19:57:51.110Z,11.50
2019-02-23T20:00:21.909Z,11.30
2019-02-23T20:02:53.164Z,11.40
2019-02-23T20:05:23.732Z,11.50
2019-02-23T20:07:54.477Z,11.60
2019-02-23T20:10:25.520Z,11.40
2019-02-23T20:12:56.612Z,11.20
2019-02-23T20:15:27.611Z,11.20
2019-02-23T20:17:58.508Z,11.20
2019-02-23T20:20:29.068Z,11.00
2019-02-23T20:22:59.668Z,10.80
2019-02-23T20:25:30.401Z,10.70
2019-02-23T20:28:00.973Z,10.80
2019-02-23T20:30:32.545Z,10.80
2019-02-23T20:33:03.128Z,10.70
2019-02-23T20:35:33.771Z,10.60
2019-02-23T20:38:04.509Z,10.60
2019-02-23T20:40:35.352Z,10.60
2019-02-23T20:43:06.003Z,10.60
2019-02-23T20:45:38.186Z,10.70
2019-02-23T20:48:08.860Z,10.80
2019-02-23T20:50:40.282Z,10.80
2019-02-23T20:53:12.476Z,10.80
2019-02-23T20:55:43.348Z,10.70
2019-02-23T20:58:14.232Z,10.60
2019-02-23T21:00:45.388Z,10.50
2019-02-23T21:03:16.156Z,10.50
2019-02-23T21:05:47.090Z,10.70
2019-02-23T21:08:17.983Z,10.50
2019-02-23T21:13:31.488Z,10.30
2019-02-23T21:16:02.200Z,10.20
2019-02-23T21:21:15.205Z,10.20
2019-02-23T21:23:46.033Z,10.10
2019-02-23T21:26:16.668Z,10.10
2019-02-23T21:28:47.665Z,10.10
2019-02-23T21:31:18.262Z,10.20
2019-02-23T21:33:48.840Z,10.20
2019-02-23T21:36:21.907Z,10.10
2019-02-23T21:38:52.586Z,10.00
2019-02-23T21:41:24.792Z,9.90
2019-02-23T21:43:55.416Z,9.80
2019-02-23T21:46:26.148Z,9.70
2019-02-23T21:48:56.885Z,9.60
2019-02-23T21:51:27.916Z,9.60
2019-02-23T21:53:58.809Z,9.50
2019-02-23T21:56:29.849Z,9.50
2019-02-23T21:59:00.738Z,9.50
2019-02-23T22:01:31.860Z,9.40
2019-02-23T22:04:02.643Z,9.40
2019-02-23T22:06:33.232Z,9.40
2019-02-23T22:09:04.146Z,9.40
2019-02-23T22:11:36.345Z,9.40
2019-02-23T22:14:07.164Z,9.30
2019-02-23T22:16:37.890Z,9.20
2019-02-23T22:19:09.102Z,9.20
2019-02-23T22:21:40.045Z,9.30
2019-02-23T22:24:10.763Z,9.40
2019-02-23T22:26:41.437Z,9.30
2019-02-23T22:29:12.197Z,9.20
2019-02-23T22:31:44.065Z,8.90
2019-02-23T22:34:14.533Z,8.60
2019-02-23T22:36:45.251Z,8.50
2019-02-23T22:39:15.904Z,8.50
2019-02-23T22:44:35.752Z,8.70
2019-02-23T22:47:06.357Z,8.80
2019-02-23T22:49:36.896Z,8.70
2019-02-23T22:52:07.608Z,8.70
2019-02-23T22:54:38.394Z,8.80
2019-02-23T22:57:09.288Z,8.80
2019-02-23T22:59:40.093Z,8.70
2019-02-23T23:02:10.700Z,8.60
2019-02-23T23:04:41.322Z,8.40
2019-02-23T23:09:54.589Z,8.50
2019-02-23T23:12:25.141Z,8.70
2019-02-23T23:14:55.728Z,8.70
2019-02-23T23:17:26.393Z,8.70
2019-02-23T23:19:57.174Z,8.60
2019-02-23T23:22:27.829Z,8.60
2019-02-23T23:24:58.621Z,8.70
2019-02-23T23:27:29.368Z,8.80
2019-02-23T23:30:00.091Z,8.60
2019-02-23T23:32:33.399Z,8.40
2019-02-23T23:35:10.738Z,8.30
2019-02-23T23:37:41.592Z,8.30
2019-02-23T23:40:12.344Z,8.20
2019-02-23T23:42:43.314Z,8.00
2019-02-23T23:45:14.950Z,7.90
2019-02-23T23:47:45.986Z,7.90
2019-02-23T23:50:17.306Z,7.80
2019-02-23T23:52:47.920Z,7.80
2019-02-23T23:55:18.536Z,7.80
2019-02-23T23:57:57.809Z,7.80
